sensor_id;sensor_type;location;lat;lon;timestamp;P1;durP1;ratioP1;P2;durP2;ratioP2
20294;SDS011;10306;52.128;5.208;2023-07-13T00:01:25;7.17;;;1.90;;
20294;SDS011;10306;52.128;5.208;2023-07-13T00:03:51;3.40;;;1.87;;
20294;SDS011;10306;52.128;5.208;2023-07-13T00:06:17;3.17;;;1.77;;
20294;SDS011;10306;52.128;5.208;2023-07-13T00:08:45;5.63;;;2.10;;
20294;SDS011;10306;52.128;5.208;2023-07-13T00:11:12;3.20;;;1.77;;
20294;SDS011;10306;52.128;5.208;2023-07-13T00:13:39;5.40;;;1.80;;
20294;SDS011;10306;52.128;5.208;2023-07-13T00:16:05;3.93;;;1.60;;
20294;SDS011;10306;52.128;5.208;2023-07-13T00:18:32;3.20;;;1.83;;
20294;SDS011;10306;52.128;5.208;2023-07-13T00:20:58;5.57;;;1.60;;
20294;SDS011;10306;52.128;5.208;2023-07-13T00:23:31;5.67;;;1.67;;
20294;SDS011;10306;52.128;5.208;2023-07-13T00:25:59;7.23;;;1.77;;
20294;SDS011;10306;52.128;5.208;2023-07-13T00:28:25;4.17;;;1.80;;
20294;SDS011;10306;52.128;5.208;2023-07-13T00:30:51;3.70;;;2.03;;
20294;SDS011;10306;52.128;5.208;2023-07-13T00:33:17;4.23;;;1.70;;
20294;SDS011;10306;52.128;5.208;2023-07-13T00:35:43;5.10;;;2.07;;
20294;SDS011;10306;52.128;5.208;2023-07-13T00:38:09;3.90;;;1.57;;
20294;SDS011;10306;52.128;5.208;2023-07-13T00:40:35;4.27;;;2.03;;
20294;SDS011;10306;52.128;5.208;2023-07-13T00:43:01;6.20;;;1.80;;
20294;SDS011;10306;52.128;5.208;2023-07-13T00:47:55;3.83;;;1.77;;
20294;SDS011;10306;52.128;5.208;2023-07-13T00:50:22;4.43;;;1.93;;
20294;SDS011;10306;52.128;5.208;2023-07-13T00:52:49;3.20;;;1.80;;
20294;SDS011;10306;52.128;5.208;2023-07-13T00:55:16;4.23;;;1.80;;
20294;SDS011;10306;52.128;5.208;2023-07-13T00:57:43;4.50;;;1.97;;
20294;SDS011;10306;52.128;5.208;2023-07-13T01:00:10;4.27;;;1.60;;
20294;SDS011;10306;52.128;5.208;2023-07-13T01:02:41;4.53;;;1.60;;
20294;SDS011;10306;52.128;5.208;2023-07-13T01:05:11;5.20;;;1.73;;
20294;SDS011;10306;52.128;5.208;2023-07-13T01:07:39;3.27;;;1.63;;
20294;SDS011;10306;52.128;5.208;2023-07-13T01:10:05;4.37;;;2.10;;
20294;SDS011;10306;52.128;5.208;2023-07-13T01:12:31;5.47;;;1.70;;
20294;SDS011;10306;52.128;5.208;2023-07-13T01:14:58;4.73;;;1.50;;
20294;SDS011;10306;52.128;5.208;2023-07-13T01:17:25;5.37;;;1.97;;
20294;SDS011;10306;52.128;5.208;2023-07-13T01:19:51;8.10;;;2.00;;
20294;SDS011;10306;52.128;5.208;2023-07-13T01:22:18;3.53;;;1.80;;
20294;SDS011;10306;52.128;5.208;2023-07-13T01:24:45;5.67;;;1.83;;
20294;SDS011;10306;52.128;5.208;2023-07-13T01:27:13;2.83;;;1.50;;
20294;SDS011;10306;52.128;5.208;2023-07-13T01:29:40;2.43;;;1.50;;
20294;SDS011;10306;52.128;5.208;2023-07-13T01:32:08;3.27;;;1.63;;
20294;SDS011;10306;52.128;5.208;2023-07-13T01:34:34;5.97;;;2.10;;
20294;SDS011;10306;52.128;5.208;2023-07-13T01:37:00;2.63;;;1.80;;
20294;SDS011;10306;52.128;5.208;2023-07-13T01:39:26;1.63;;;1.50;;
20294;SDS011;10306;52.128;5.208;2023-07-13T01:41:52;5.60;;;2.10;;
20294;SDS011;10306;52.128;5.208;2023-07-13T01:44:18;7.67;;;2.03;;
20294;SDS011;10306;52.128;5.208;2023-07-13T01:46:44;5.27;;;1.80;;
20294;SDS011;10306;52.128;5.208;2023-07-13T01:49:10;2.93;;;2.20;;
20294;SDS011;10306;52.128;5.208;2023-07-13T01:51:37;2.73;;;1.97;;
20294;SDS011;10306;52.128;5.208;2023-07-13T01:54:03;2.80;;;1.80;;
20294;SDS011;10306;52.128;5.208;2023-07-13T01:56:29;11.63;;;2.00;;
20294;SDS011;10306;52.128;5.208;2023-07-13T01:58:55;4.07;;;1.80;;
20294;SDS011;10306;52.128;5.208;2023-07-13T02:01:21;4.80;;;2.40;;
20294;SDS011;10306;52.128;5.208;2023-07-13T02:03:47;7.47;;;2.10;;
20294;SDS011;10306;52.128;5.208;2023-07-13T02:06:13;5.50;;;1.97;;
20294;SDS011;10306;52.128;5.208;2023-07-13T02:08:40;5.03;;;1.63;;
20294;SDS011;10306;52.128;5.208;2023-07-13T02:11:07;4.20;;;2.30;;
20294;SDS011;10306;52.128;5.208;2023-07-13T02:13:33;6.30;;;2.30;;
20294;SDS011;10306;52.128;5.208;2023-07-13T02:16:00;5.40;;;2.40;;
20294;SDS011;10306;52.128;5.208;2023-07-13T02:18:26;4.87;;;2.40;;
20294;SDS011;10306;52.128;5.208;2023-07-13T02:20:52;6.20;;;2.60;;
20294;SDS011;10306;52.128;5.208;2023-07-13T02:23:18;5.30;;;2.07;;
20294;SDS011;10306;52.128;5.208;2023-07-13T02:25:44;6.17;;;2.00;;
20294;SDS011;10306;52.128;5.208;2023-07-13T02:28:10;2.30;;;1.90;;
20294;SDS011;10306;52.128;5.208;2023-07-13T02:30:36;7.13;;;2.70;;
20294;SDS011;10306;52.128;5.208;2023-07-13T02:33:03;5.57;;;2.10;;
20294;SDS011;10306;52.128;5.208;2023-07-13T02:35:29;4.17;;;2.30;;
20294;SDS011;10306;52.128;5.208;2023-07-13T02:37:56;7.57;;;2.50;;
20294;SDS011;10306;52.128;5.208;2023-07-13T02:40:22;6.73;;;2.07;;
20294;SDS011;10306;52.128;5.208;2023-07-13T02:42:48;3.33;;;2.30;;
20294;SDS011;10306;52.128;5.208;2023-07-13T02:45:14;4.77;;;2.47;;
20294;SDS011;10306;52.128;5.208;2023-07-13T02:47:40;3.33;;;2.37;;
20294;SDS011;10306;52.128;5.208;2023-07-13T02:50:07;2.77;;;2.10;;
20294;SDS011;10306;52.128;5.208;2023-07-13T02:52:33;5.40;;;2.43;;
20294;SDS011;10306;52.128;5.208;2023-07-13T02:54:59;4.57;;;2.40;;
20294;SDS011;10306;52.128;5.208;2023-07-13T02:57:25;6.53;;;2.60;;
20294;SDS011;10306;52.128;5.208;2023-07-13T02:59:53;6.40;;;2.73;;
20294;SDS011;10306;52.128;5.208;2023-07-13T03:02:19;5.97;;;2.67;;
20294;SDS011;10306;52.128;5.208;2023-07-13T03:04:46;7.03;;;2.63;;
20294;SDS011;10306;52.128;5.208;2023-07-13T03:07:12;3.27;;;2.70;;
20294;SDS011;10306;52.128;5.208;2023-07-13T03:09:39;5.57;;;2.63;;
20294;SDS011;10306;52.128;5.208;2023-07-13T03:12:05;5.53;;;2.73;;
20294;SDS011;10306;52.128;5.208;2023-07-13T03:14:31;5.73;;;2.60;;
20294;SDS011;10306;52.128;5.208;2023-07-13T03:16:57;5.20;;;2.23;;
20294;SDS011;10306;52.128;5.208;2023-07-13T03:19:23;4.83;;;2.40;;
20294;SDS011;10306;52.128;5.208;2023-07-13T03:21:49;6.10;;;2.70;;
20294;SDS011;10306;52.128;5.208;2023-07-13T03:24:15;5.00;;;2.10;;
20294;SDS011;10306;52.128;5.208;2023-07-13T03:26:41;9.97;;;3.47;;
20294;SDS011;10306;52.128;5.208;2023-07-13T03:29:07;4.63;;;2.10;;
20294;SDS011;10306;52.128;5.208;2023-07-13T03:31:34;5.20;;;2.13;;
20294;SDS011;10306;52.128;5.208;2023-07-13T03:34:00;5.57;;;2.30;;
20294;SDS011;10306;52.128;5.208;2023-07-13T03:36:27;4.10;;;1.80;;
20294;SDS011;10306;52.128;5.208;2023-07-13T03:38:54;5.00;;;2.20;;
20294;SDS011;10306;52.128;5.208;2023-07-13T03:41:21;3.33;;;2.00;;
20294;SDS011;10306;52.128;5.208;2023-07-13T03:43:47;7.40;;;1.83;;
20294;SDS011;10306;52.128;5.208;2023-07-13T03:46:14;2.53;;;2.03;;
20294;SDS011;10306;52.128;5.208;2023-07-13T03:48:41;4.20;;;1.97;;
20294;SDS011;10306;52.128;5.208;2023-07-13T03:51:09;4.67;;;1.93;;
20294;SDS011;10306;52.128;5.208;2023-07-13T03:53:37;4.63;;;2.07;;
20294;SDS011;10306;52.128;5.208;2023-07-13T03:56:05;5.03;;;1.87;;
20294;SDS011;10306;52.128;5.208;2023-07-13T03:58:32;3.80;;;2.23;;
20294;SDS011;10306;52.128;5.208;2023-07-13T04:00:59;4.53;;;2.43;;
20294;SDS011;10306;52.128;5.208;2023-07-13T04:03:25;8.47;;;2.57;;
20294;SDS011;10306;52.128;5.208;2023-07-13T04:05:53;5.60;;;2.53;;
20294;SDS011;10306;52.128;5.208;2023-07-13T04:08:18;8.97;;;3.33;;
20294;SDS011;10306;52.128;5.208;2023-07-13T04:10:44;8.17;;;2.70;;
20294;SDS011;10306;52.128;5.208;2023-07-13T04:13:10;6.60;;;2.77;;
20294;SDS011;10306;52.128;5.208;2023-07-13T04:15:38;7.20;;;2.73;;
20294;SDS011;10306;52.128;5.208;2023-07-13T04:18:05;9.37;;;3.50;;
20294;SDS011;10306;52.128;5.208;2023-07-13T04:20:31;10.37;;;3.13;;
20294;SDS011;10306;52.128;5.208;2023-07-13T04:22:57;5.80;;;3.23;;
20294;SDS011;10306;52.128;5.208;2023-07-13T04:25:24;5.17;;;2.87;;
20294;SDS011;10306;52.128;5.208;2023-07-13T04:27:50;8.63;;;3.40;;
20294;SDS011;10306;52.128;5.208;2023-07-13T04:30:17;7.93;;;3.73;;
20294;SDS011;10306;52.128;5.208;2023-07-13T04:32:43;12.77;;;4.83;;
20294;SDS011;10306;52.128;5.208;2023-07-13T04:35:09;8.70;;;3.33;;
20294;SDS011;10306;52.128;5.208;2023-07-13T04:37:35;6.27;;;3.60;;
20294;SDS011;10306;52.128;5.208;2023-07-13T04:40:01;7.00;;;3.83;;
20294;SDS011;10306;52.128;5.208;2023-07-13T04:42:28;8.33;;;3.30;;
20294;SDS011;10306;52.128;5.208;2023-07-13T04:44:54;7.53;;;4.00;;
20294;SDS011;10306;52.128;5.208;2023-07-13T04:47:21;11.10;;;3.90;;
20294;SDS011;10306;52.128;5.208;2023-07-13T04:49:47;9.53;;;3.40;;
20294;SDS011;10306;52.128;5.208;2023-07-13T04:52:13;13.43;;;4.37;;
20294;SDS011;10306;52.128;5.208;2023-07-13T04:54:39;9.43;;;3.97;;
20294;SDS011;10306;52.128;5.208;2023-07-13T04:57:05;7.50;;;4.30;;
20294;SDS011;10306;52.128;5.208;2023-07-13T04:59:31;13.37;;;4.13;;
20294;SDS011;10306;52.128;5.208;2023-07-13T05:01:57;11.93;;;4.07;;
20294;SDS011;10306;52.128;5.208;2023-07-13T05:04:23;8.77;;;3.73;;
20294;SDS011;10306;52.128;5.208;2023-07-13T05:06:49;13.00;;;4.53;;
20294;SDS011;10306;52.128;5.208;2023-07-13T05:09:16;14.03;;;5.43;;
20294;SDS011;10306;52.128;5.208;2023-07-13T05:11:42;14.97;;;4.20;;
20294;SDS011;10306;52.128;5.208;2023-07-13T05:14:08;13.67;;;4.03;;
20294;SDS011;10306;52.128;5.208;2023-07-13T05:16:35;9.00;;;4.30;;
20294;SDS011;10306;52.128;5.208;2023-07-13T05:19:01;9.90;;;4.80;;
20294;SDS011;10306;52.128;5.208;2023-07-13T05:21:27;11.27;;;4.13;;
20294;SDS011;10306;52.128;5.208;2023-07-13T05:23:53;10.70;;;3.90;;
20294;SDS011;10306;52.128;5.208;2023-07-13T05:26:19;11.53;;;4.43;;
20294;SDS011;10306;52.128;5.208;2023-07-13T05:28:46;13.17;;;5.40;;
20294;SDS011;10306;52.128;5.208;2023-07-13T05:31:12;10.83;;;5.17;;
20294;SDS011;10306;52.128;5.208;2023-07-13T05:33:38;10.07;;;4.77;;
20294;SDS011;10306;52.128;5.208;2023-07-13T05:36:04;9.90;;;5.40;;
20294;SDS011;10306;52.128;5.208;2023-07-13T05:38:30;11.70;;;5.20;;
20294;SDS011;10306;52.128;5.208;2023-07-13T05:40:56;11.53;;;5.13;;
20294;SDS011;10306;52.128;5.208;2023-07-13T05:43:22;6.60;;;5.20;;
20294;SDS011;10306;52.128;5.208;2023-07-13T05:45:49;11.80;;;5.43;;
20294;SDS011;10306;52.128;5.208;2023-07-13T05:48:16;13.73;;;5.97;;
20294;SDS011;10306;52.128;5.208;2023-07-13T05:50:42;16.60;;;6.97;;
20294;SDS011;10306;52.128;5.208;2023-07-13T05:53:08;17.60;;;6.77;;
20294;SDS011;10306;52.128;5.208;2023-07-13T05:55:34;12.87;;;5.90;;
20294;SDS011;10306;52.128;5.208;2023-07-13T05:58:01;10.67;;;5.13;;
20294;SDS011;10306;52.128;5.208;2023-07-13T06:00:27;10.63;;;5.43;;
20294;SDS011;10306;52.128;5.208;2023-07-13T06:02:53;11.30;;;5.23;;
20294;SDS011;10306;52.128;5.208;2023-07-13T06:05:19;7.60;;;5.33;;
20294;SDS011;10306;52.128;5.208;2023-07-13T06:07:45;16.87;;;7.13;;
20294;SDS011;10306;52.128;5.208;2023-07-13T06:10:11;11.67;;;5.43;;
20294;SDS011;10306;52.128;5.208;2023-07-13T06:12:37;10.80;;;5.37;;
20294;SDS011;10306;52.128;5.208;2023-07-13T06:15:03;10.43;;;5.90;;
20294;SDS011;10306;52.128;5.208;2023-07-13T06:17:29;11.33;;;5.27;;
20294;SDS011;10306;52.128;5.208;2023-07-13T06:19:55;9.10;;;5.47;;
20294;SDS011;10306;52.128;5.208;2023-07-13T06:22:21;8.67;;;5.40;;
20294;SDS011;10306;52.128;5.208;2023-07-13T06:24:47;9.33;;;5.43;;
20294;SDS011;10306;52.128;5.208;2023-07-13T06:27:13;10.97;;;4.77;;
20294;SDS011;10306;52.128;5.208;2023-07-13T06:29:39;9.90;;;4.70;;
20294;SDS011;10306;52.128;5.208;2023-07-13T06:32:05;11.40;;;5.93;;
20294;SDS011;10306;52.128;5.208;2023-07-13T06:34:31;9.57;;;5.93;;
20294;SDS011;10306;52.128;5.208;2023-07-13T06:36:57;6.00;;;5.47;;
20294;SDS011;10306;52.128;5.208;2023-07-13T06:39:23;7.40;;;6.63;;
20294;SDS011;10306;52.128;5.208;2023-07-13T06:41:49;11.87;;;6.67;;
20294;SDS011;10306;52.128;5.208;2023-07-13T06:44:15;11.67;;;6.73;;
20294;SDS011;10306;52.128;5.208;2023-07-13T06:46:41;12.93;;;7.60;;
20294;SDS011;10306;52.128;5.208;2023-07-13T06:49:08;8.93;;;6.77;;
20294;SDS011;10306;52.128;5.208;2023-07-13T06:51:34;11.40;;;7.43;;
20294;SDS011;10306;52.128;5.208;2023-07-13T06:54:00;9.73;;;6.77;;
20294;SDS011;10306;52.128;5.208;2023-07-13T06:56:26;11.43;;;8.23;;
20294;SDS011;10306;52.128;5.208;2023-07-13T06:58:52;11.57;;;7.00;;
20294;SDS011;10306;52.128;5.208;2023-07-13T07:01:18;9.87;;;7.93;;
20294;SDS011;10306;52.128;5.208;2023-07-13T07:03:44;16.10;;;8.27;;
20294;SDS011;10306;52.128;5.208;2023-07-13T07:06:16;12.70;;;7.90;;
20294;SDS011;10306;52.128;5.208;2023-07-13T07:08:42;11.27;;;7.47;;
20294;SDS011;10306;52.128;5.208;2023-07-13T07:11:17;11.20;;;7.70;;
20294;SDS011;10306;52.128;5.208;2023-07-13T07:13:43;10.90;;;7.00;;
20294;SDS011;10306;52.128;5.208;2023-07-13T07:16:09;13.63;;;6.93;;
20294;SDS011;10306;52.128;5.208;2023-07-13T07:18:35;8.77;;;5.60;;
20294;SDS011;10306;52.128;5.208;2023-07-13T07:21:02;6.37;;;5.40;;
20294;SDS011;10306;52.128;5.208;2023-07-13T07:23:28;5.53;;;4.97;;
20294;SDS011;10306;52.128;5.208;2023-07-13T07:25:54;5.57;;;4.43;;
20294;SDS011;10306;52.128;5.208;2023-07-13T07:28:20;6.77;;;4.10;;
20294;SDS011;10306;52.128;5.208;2023-07-13T07:30:46;6.63;;;5.10;;
20294;SDS011;10306;52.128;5.208;2023-07-13T07:33:13;7.70;;;5.37;;
20294;SDS011;10306;52.128;5.208;2023-07-13T07:35:39;10.67;;;5.90;;
20294;SDS011;10306;52.128;5.208;2023-07-13T07:38:05;9.93;;;6.47;;
20294;SDS011;10306;52.128;5.208;2023-07-13T07:40:31;11.60;;;6.70;;
20294;SDS011;10306;52.128;5.208;2023-07-13T07:42:58;10.10;;;6.87;;
20294;SDS011;10306;52.128;5.208;2023-07-13T07:45:24;11.70;;;6.97;;
20294;SDS011;10306;52.128;5.208;2023-07-13T07:47:50;8.17;;;7.27;;
20294;SDS011;10306;52.128;5.208;2023-07-13T07:50:16;11.10;;;7.90;;
20294;SDS011;10306;52.128;5.208;2023-07-13T07:52:42;8.67;;;7.70;;
20294;SDS011;10306;52.128;5.208;2023-07-13T07:55:09;12.57;;;8.67;;
20294;SDS011;10306;52.128;5.208;2023-07-13T07:57:35;12.00;;;8.20;;
20294;SDS011;10306;52.128;5.208;2023-07-13T08:00:01;9.20;;;7.07;;
20294;SDS011;10306;52.128;5.208;2023-07-13T08:02:27;7.53;;;6.20;;
20294;SDS011;10306;52.128;5.208;2023-07-13T08:04:53;10.97;;;7.00;;
20294;SDS011;10306;52.128;5.208;2023-07-13T08:07:19;9.87;;;6.07;;
20294;SDS011;10306;52.128;5.208;2023-07-13T08:09:45;11.63;;;6.67;;
20294;SDS011;10306;52.128;5.208;2023-07-13T08:12:12;11.53;;;6.67;;
20294;SDS011;10306;52.128;5.208;2023-07-13T08:14:38;8.80;;;6.53;;
20294;SDS011;10306;52.128;5.208;2023-07-13T08:17:04;11.57;;;6.47;;
20294;SDS011;10306;52.128;5.208;2023-07-13T08:19:30;12.27;;;6.40;;
20294;SDS011;10306;52.128;5.208;2023-07-13T08:21:56;11.43;;;6.20;;
20294;SDS011;10306;52.128;5.208;2023-07-13T08:24:23;5.10;;;4.70;;
20294;SDS011;10306;52.128;5.208;2023-07-13T08:26:50;6.27;;;4.30;;
20294;SDS011;10306;52.128;5.208;2023-07-13T08:29:16;4.50;;;4.00;;
20294;SDS011;10306;52.128;5.208;2023-07-13T08:31:42;6.13;;;3.93;;
20294;SDS011;10306;52.128;5.208;2023-07-13T08:34:08;3.27;;;3.07;;
20294;SDS011;10306;52.128;5.208;2023-07-13T08:36:34;4.50;;;2.50;;
20294;SDS011;10306;52.128;5.208;2023-07-13T08:39:00;2.50;;;2.40;;
20294;SDS011;10306;52.128;5.208;2023-07-13T08:41:26;2.83;;;2.57;;
20294;SDS011;10306;52.128;5.208;2023-07-13T08:43:55;2.53;;;2.37;;
20294;SDS011;10306;52.128;5.208;2023-07-13T08:46:30;2.40;;;2.20;;
20294;SDS011;10306;52.128;5.208;2023-07-13T08:49:17;2.50;;;2.30;;
20294;SDS011;10306;52.128;5.208;2023-07-13T08:51:49;2.43;;;2.20;;
20294;SDS011;10306;52.128;5.208;2023-07-13T08:54:25;2.30;;;2.10;;
20294;SDS011;10306;52.128;5.208;2023-07-13T08:56:52;2.90;;;2.60;;
20294;SDS011;10306;52.128;5.208;2023-07-13T08:59:20;3.67;;;2.80;;
20294;SDS011;10306;52.128;5.208;2023-07-13T09:04:21;2.80;;;2.60;;
20294;SDS011;10306;52.128;5.208;2023-07-13T09:09:23;3.47;;;3.27;;
20294;SDS011;10306;52.128;5.208;2023-07-13T09:16:53;2.90;;;2.70;;
20294;SDS011;10306;52.128;5.208;2023-07-13T09:19:21;4.03;;;3.40;;
20294;SDS011;10306;52.128;5.208;2023-07-13T09:21:48;6.00;;;3.57;;
20294;SDS011;10306;52.128;5.208;2023-07-13T09:26:45;3.60;;;3.30;;
20294;SDS011;10306;52.128;5.208;2023-07-13T09:29:14;3.50;;;3.30;;
20294;SDS011;10306;52.128;5.208;2023-07-13T09:31:45;4.20;;;3.60;;
20294;SDS011;10306;52.128;5.208;2023-07-13T09:34:13;4.40;;;4.00;;
20294;SDS011;10306;52.128;5.208;2023-07-13T09:36:39;3.93;;;3.37;;
20294;SDS011;10306;52.128;5.208;2023-07-13T09:39:08;3.07;;;2.67;;
20294;SDS011;10306;52.128;5.208;2023-07-13T09:41:47;3.63;;;2.20;;
20294;SDS011;10306;52.128;5.208;2023-07-13T09:44:16;2.60;;;2.40;;
20294;SDS011;10306;52.128;5.208;2023-07-13T09:46:46;2.97;;;2.77;;
20294;SDS011;10306;52.128;5.208;2023-07-13T09:49:12;2.97;;;2.67;;
20294;SDS011;10306;52.128;5.208;2023-07-13T09:51:40;2.77;;;2.67;;
20294;SDS011;10306;52.128;5.208;2023-07-13T09:54:16;3.57;;;3.27;;
20294;SDS011;10306;52.128;5.208;2023-07-13T09:56:42;4.07;;;3.70;;
20294;SDS011;10306;52.128;5.208;2023-07-13T09:59:19;7.60;;;4.67;;
20294;SDS011;10306;52.128;5.208;2023-07-13T10:01:45;5.30;;;4.33;;
20294;SDS011;10306;52.128;5.208;2023-07-13T10:04:14;4.93;;;4.53;;
20294;SDS011;10306;52.128;5.208;2023-07-13T10:06:43;4.70;;;4.40;;
20294;SDS011;10306;52.128;5.208;2023-07-13T10:09:10;5.73;;;4.77;;
20294;SDS011;10306;52.128;5.208;2023-07-13T10:11:38;5.60;;;5.10;;
20294;SDS011;10306;52.128;5.208;2023-07-13T10:14:10;8.43;;;4.97;;
20294;SDS011;10306;52.128;5.208;2023-07-13T10:16:37;5.40;;;5.00;;
20294;SDS011;10306;52.128;5.208;2023-07-13T10:19:09;5.97;;;5.33;;
20294;SDS011;10306;52.128;5.208;2023-07-13T10:21:38;5.20;;;4.80;;
20294;SDS011;10306;52.128;5.208;2023-07-13T10:26:36;9.13;;;6.27;;
20294;SDS011;10306;52.128;5.208;2023-07-13T10:29:06;5.83;;;5.33;;
20294;SDS011;10306;52.128;5.208;2023-07-13T10:31:35;5.80;;;5.27;;
20294;SDS011;10306;52.128;5.208;2023-07-13T10:34:03;6.40;;;5.80;;
20294;SDS011;10306;52.128;5.208;2023-07-13T10:36:40;5.53;;;5.07;;
20294;SDS011;10306;52.128;5.208;2023-07-13T10:39:09;4.87;;;4.47;;
20294;SDS011;10306;52.128;5.208;2023-07-13T10:41:38;4.23;;;3.83;;
20294;SDS011;10306;52.128;5.208;2023-07-13T10:44:05;4.23;;;4.00;;
20294;SDS011;10306;52.128;5.208;2023-07-13T10:46:35;5.07;;;4.57;;
20294;SDS011;10306;52.128;5.208;2023-07-13T10:49:02;6.57;;;4.17;;
20294;SDS011;10306;52.128;5.208;2023-07-13T10:51:29;6.47;;;3.63;;
20294;SDS011;10306;52.128;5.208;2023-07-13T10:54:16;3.90;;;3.53;;
20294;SDS011;10306;52.128;5.208;2023-07-13T10:56:42;3.60;;;3.30;;
20294;SDS011;10306;52.128;5.208;2023-07-13T11:04:19;3.60;;;3.30;;
20294;SDS011;10306;52.128;5.208;2023-07-13T11:06:47;3.83;;;3.60;;
20294;SDS011;10306;52.128;5.208;2023-07-13T11:12:03;3.47;;;3.20;;
20294;SDS011;10306;52.128;5.208;2023-07-13T11:14:41;5.67;;;3.30;;
20294;SDS011;10306;52.128;5.208;2023-07-13T11:19:52;3.40;;;3.10;;
20294;SDS011;10306;52.128;5.208;2023-07-13T11:22:22;3.07;;;2.80;;
20294;SDS011;10306;52.128;5.208;2023-07-13T11:24:49;3.87;;;2.63;;
20294;SDS011;10306;52.128;5.208;2023-07-13T11:27:25;2.23;;;2.13;;
20294;SDS011;10306;52.128;5.208;2023-07-13T11:30:06;2.60;;;2.20;;
20294;SDS011;10306;52.128;5.208;2023-07-13T11:32:32;3.20;;;2.67;;
20294;SDS011;10306;52.128;5.208;2023-07-13T11:34:58;4.17;;;3.00;;
20294;SDS011;10306;52.128;5.208;2023-07-13T11:37:24;3.37;;;2.93;;
20294;SDS011;10306;52.128;5.208;2023-07-13T11:39:50;3.07;;;2.87;;
20294;SDS011;10306;52.128;5.208;2023-07-13T11:42:18;3.23;;;3.00;;
20294;SDS011;10306;52.128;5.208;2023-07-13T11:44:48;3.57;;;3.23;;
20294;SDS011;10306;52.128;5.208;2023-07-13T11:47:18;3.20;;;3.10;;
20294;SDS011;10306;52.128;5.208;2023-07-13T11:49:50;3.63;;;3.00;;
20294;SDS011;10306;52.128;5.208;2023-07-13T11:52:21;2.90;;;2.80;;
20294;SDS011;10306;52.128;5.208;2023-07-13T11:54:52;3.53;;;3.23;;
20294;SDS011;10306;52.128;5.208;2023-07-13T11:59:49;3.90;;;2.97;;
20294;SDS011;10306;52.128;5.208;2023-07-13T12:02:18;4.27;;;3.50;;
20294;SDS011;10306;52.128;5.208;2023-07-13T12:04:49;3.40;;;3.10;;
20294;SDS011;10306;52.128;5.208;2023-07-13T12:07:18;5.20;;;3.20;;
20294;SDS011;10306;52.128;5.208;2023-07-13T12:09:44;3.03;;;2.83;;
20294;SDS011;10306;52.128;5.208;2023-07-13T12:12:14;2.97;;;2.77;;
20294;SDS011;10306;52.128;5.208;2023-07-13T12:14:40;3.10;;;2.80;;
20294;SDS011;10306;52.128;5.208;2023-07-13T12:17:16;3.38;;;3.00;;
20294;SDS011;10306;52.128;5.208;2023-07-13T12:19:44;4.07;;;3.17;;
20294;SDS011;10306;52.128;5.208;2023-07-13T12:22:11;3.50;;;2.77;;
20294;SDS011;10306;52.128;5.208;2023-07-13T12:24:38;3.63;;;2.38;;
20294;SDS011;10306;52.128;5.208;2023-07-13T12:27:05;2.63;;;2.30;;
20294;SDS011;10306;52.128;5.208;2023-07-13T12:29:32;2.72;;;2.42;;
20294;SDS011;10306;52.128;5.208;2023-07-13T12:31:58;6.28;;;2.70;;
20294;SDS011;10306;52.128;5.208;2023-07-13T12:34:25;2.60;;;2.30;;
20294;SDS011;10306;52.128;5.208;2023-07-13T12:37:01;3.38;;;2.80;;
20294;SDS011;10306;52.128;5.208;2023-07-13T12:39:34;5.22;;;2.90;;
20294;SDS011;10306;52.128;5.208;2023-07-13T12:44:46;4.75;;;2.75;;
20294;SDS011;10306;52.128;5.208;2023-07-13T12:47:13;2.20;;;2.10;;
20294;SDS011;10306;52.128;5.208;2023-07-13T12:49:42;2.50;;;2.30;;
20294;SDS011;10306;52.128;5.208;2023-07-13T12:52:15;2.40;;;2.20;;
20294;SDS011;10306;52.128;5.208;2023-07-13T12:54:42;4.88;;;2.22;;
20294;SDS011;10306;52.128;5.208;2023-07-13T12:57:12;3.88;;;2.60;;
20294;SDS011;10306;52.128;5.208;2023-07-13T12:59:40;4.25;;;2.50;;
20294;SDS011;10306;52.128;5.208;2023-07-13T13:02:19;2.40;;;2.20;;
20294;SDS011;10306;52.128;5.208;2023-07-13T13:04:48;2.45;;;2.25;;
20294;SDS011;10306;52.128;5.208;2023-07-13T13:07:14;2.20;;;2.10;;
20294;SDS011;10306;52.128;5.208;2023-07-13T13:09:40;2.47;;;2.33;;
20294;SDS011;10306;52.128;5.208;2023-07-13T13:12:06;3.25;;;2.63;;
20294;SDS011;10306;52.128;5.208;2023-07-13T13:14:32;2.28;;;2.17;;
20294;SDS011;10306;52.128;5.208;2023-07-13T13:16:58;6.13;;;2.60;;
20294;SDS011;10306;52.128;5.208;2023-07-13T13:19:26;2.70;;;2.30;;
20294;SDS011;10306;52.128;5.208;2023-07-13T13:21:53;2.65;;;2.47;;
20294;SDS011;10306;52.128;5.208;2023-07-13T13:24:23;2.47;;;2.28;;
20294;SDS011;10306;52.128;5.208;2023-07-13T13:26:50;2.28;;;2.10;;
20294;SDS011;10306;52.128;5.208;2023-07-13T13:29:20;2.70;;;2.03;;
20294;SDS011;10306;52.128;5.208;2023-07-13T13:31:46;3.42;;;2.95;;
20294;SDS011;10306;52.128;5.208;2023-07-13T13:34:14;2.42;;;2.28;;
20294;SDS011;10306;52.128;5.208;2023-07-13T13:36:41;3.28;;;2.58;;
20294;SDS011;10306;52.128;5.208;2023-07-13T13:39:21;2.38;;;2.28;;
20294;SDS011;10306;52.128;5.208;2023-07-13T13:41:49;2.50;;;2.30;;
20294;SDS011;10306;52.128;5.208;2023-07-13T13:44:15;2.40;;;2.30;;
20294;SDS011;10306;52.128;5.208;2023-07-13T13:46:42;2.45;;;2.35;;
20294;SDS011;10306;52.128;5.208;2023-07-13T13:49:12;4.43;;;2.20;;
20294;SDS011;10306;52.128;5.208;2023-07-13T13:51:39;2.22;;;1.98;;
20294;SDS011;10306;52.128;5.208;2023-07-13T13:54:08;4.82;;;2.22;;
20294;SDS011;10306;52.128;5.208;2023-07-13T13:56:36;2.55;;;2.40;;
20294;SDS011;10306;52.128;5.208;2023-07-13T13:59:02;3.38;;;2.40;;
20294;SDS011;10306;52.128;5.208;2023-07-13T14:01:29;2.25;;;2.13;;
20294;SDS011;10306;52.128;5.208;2023-07-13T14:03:56;2.35;;;2.15;;
20294;SDS011;10306;52.128;5.208;2023-07-13T14:06:24;3.00;;;2.53;;
20294;SDS011;10306;52.128;5.208;2023-07-13T14:08:50;2.20;;;2.10;;
20294;SDS011;10306;52.128;5.208;2023-07-13T14:11:17;2.15;;;1.95;;
20294;SDS011;10306;52.128;5.208;2023-07-13T14:13:44;2.30;;;2.10;;
20294;SDS011;10306;52.128;5.208;2023-07-13T14:16:12;2.10;;;2.00;;
20294;SDS011;10306;52.128;5.208;2023-07-13T14:18:39;3.90;;;1.98;;
20294;SDS011;10306;52.128;5.208;2023-07-13T14:21:11;2.38;;;2.17;;
20294;SDS011;10306;52.128;5.208;2023-07-13T14:23:37;2.30;;;2.10;;
20294;SDS011;10306;52.128;5.208;2023-07-13T14:26:07;2.17;;;1.98;;
20294;SDS011;10306;52.128;5.208;2023-07-13T14:28:33;2.22;;;2.13;;
20294;SDS011;10306;52.128;5.208;2023-07-13T14:31:00;1.90;;;1.80;;
20294;SDS011;10306;52.128;5.208;2023-07-13T14:33:26;2.10;;;1.90;;
20294;SDS011;10306;52.128;5.208;2023-07-13T14:35:52;2.50;;;2.20;;
20294;SDS011;10306;52.128;5.208;2023-07-13T14:38:18;2.15;;;1.83;;
20294;SDS011;10306;52.128;5.208;2023-07-13T14:40:45;1.85;;;1.75;;
20294;SDS011;10306;52.128;5.208;2023-07-13T14:43:16;2.03;;;1.92;;
20294;SDS011;10306;52.128;5.208;2023-07-13T14:45:49;2.00;;;1.73;;
20294;SDS011;10306;52.128;5.208;2023-07-13T14:48:17;1.90;;;1.80;;
20294;SDS011;10306;52.128;5.208;2023-07-13T14:50:43;2.38;;;1.80;;
20294;SDS011;10306;52.128;5.208;2023-07-13T14:53:11;1.90;;;1.80;;
20294;SDS011;10306;52.128;5.208;2023-07-13T14:55:37;2.00;;;1.85;;
20294;SDS011;10306;52.128;5.208;2023-07-13T14:58:03;2.67;;;2.17;;
20294;SDS011;10306;52.128;5.208;2023-07-13T15:00:29;2.28;;;1.92;;
20294;SDS011;10306;52.128;5.208;2023-07-13T15:02:56;2.38;;;2.20;;
20294;SDS011;10306;52.128;5.208;2023-07-13T15:05:24;2.38;;;2.10;;
20294;SDS011;10306;52.128;5.208;2023-07-13T15:07:52;2.75;;;2.10;;
20294;SDS011;10306;52.128;5.208;2023-07-13T15:10:19;3.45;;;1.80;;
20294;SDS011;10306;52.128;5.208;2023-07-13T15:12:45;3.53;;;1.88;;
20294;SDS011;10306;52.128;5.208;2023-07-13T15:15:12;3.90;;;2.00;;
20294;SDS011;10306;52.128;5.208;2023-07-13T15:17:39;2.08;;;1.80;;
20294;SDS011;10306;52.128;5.208;2023-07-13T15:20:06;1.90;;;1.70;;